Sommer S — WDG3830 — position and weather

sailwx.info

Track history (hours):
 
Tides and Currents Weather Stations Pressure Air Temp Water Temp Dewpoint Dewpoint Depression Visibility Wind Speed Wind Dir Waves Ship Positions

Sommer S

Owner: Shaver Transportation Company, Portland, OR. More information available from US FCC via Universal Licensing System and Coast Guard Vessel Documentation Center.

Last reported at 2014-Dec-22 05:33 UTC. Time now 2014-Dec-22 05:36 UTC.
Position N 46°05' W 122°56'.

Length 25 m.

Type: Tug. MMSI: 367530080.

Date/timePositionNaut miles runAvg speedWind from/ knotsBaromVisibWave heightAir tempDewpointWater temp
2014-Dec-22 05:33N 46°05' W 122°56'1 1.0
2014-Dec-22 04:33N 46°06' W 122°57'2 1.9
2014-Dec-22 03:33N 46°05' W 122°55'4 4.3
2014-Dec-22 02:33N 46°08' W 122°60'7 6.6
2014-Dec-22 01:32N 46°11' W 123°08'6 6.3
2014-Dec-22 00:33N 46°09' W 123°16'6 6.5
2014-Dec-21 23:33N 46°10' W 123°25'7 6.5
2014-Dec-21 22:33N 46°16' W 123°29'8 7.7
2014-Dec-21 21:33N 46°15' W 123°40'9 8.7
2014-Dec-21 20:33N 46°11' W 123°52'0 0.1
2014-Dec-21 19:33N 46°11' W 123°52'0 0.1
2014-Dec-21 18:34N 46°11' W 123°52'2 2.0
2014-Dec-21 17:33N 46°12' W 123°49'9 8.6
2014-Dec-21 16:33N 46°16' W 123°38'9 8.8
2014-Dec-21 15:33N 46°12' W 123°26'9 9.1
2014-Dec-21 14:33N 46°10' W 123°13'1010.3
2014-Dec-21 13:33N 46°07' W 122°59'2 1.7
2014-Dec-21 12:33N 46°06' W 122°57'0 0.5
2014-Dec-21 11:33N 46°06' W 122°57'1 0.7
2014-Dec-21 10:33N 46°06' W 122°56'0 0.0
2014-Dec-21 09:33N 46°06' W 122°56'0 0.0
2014-Dec-21 08:33N 46°06' W 122°56'0 0.0
2014-Dec-21 07:33N 46°06' W 122°56'0 0.0
2014-Dec-21 06:33N 46°06' W 122°56'0 0.0
2014-Dec-21 05:33N 46°06' W 122°56'0 0.0
2014-Dec-21 04:33N 46°06' W 122°56'0 0.0
2014-Dec-21 03:33N 46°06' W 122°56'0 0.0
2014-Dec-21 02:33N 46°06' W 122°56'0 0.0
2014-Dec-21 01:33N 46°06' W 122°56'0 0.0
2014-Dec-21 00:33N 46°06' W 122°56'0 0.0
2014-Dec-20 23:33N 46°06' W 122°56'0 0.0
2014-Dec-20 22:33N 46°06' W 122°56'0 0.0
2014-Dec-20 21:33N 46°06' W 122°56'0 0.0
2014-Dec-20 20:33N 46°06' W 122°56'0 0.0
2014-Dec-20 19:33N 46°06' W 122°56'0 0.0
2014-Dec-20 18:33N 46°06' W 122°56'0 0.0
2014-Dec-20 17:33N 46°06' W 122°56'0 0.0
2014-Dec-20 16:33N 46°06' W 122°56'0 0.0
2014-Dec-20 15:33N 46°06' W 122°56'0 0.0
2014-Dec-20 14:33N 46°06' W 122°56'0 0.0
2014-Dec-20 13:33N 46°06' W 122°56'0 0.0
2014-Dec-20 12:33N 46°06' W 122°56'0 0.2
2014-Dec-20 11:33N 46°06' W 122°57'1 1.0
2014-Dec-20 10:33N 46°06' W 122°56'1 0.8
2014-Dec-20 09:33N 46°06' W 122°56'0 0.0
2014-Dec-20 08:33N 46°06' W 122°56'0 0.0
2014-Dec-20 07:33N 46°06' W 122°56'0 0.0
2014-Dec-20 06:33N 46°06' W 122°56'0 0.0
2014-Dec-20 05:33N 46°06' W 122°56'0 0.0
2014-Dec-20 04:33N 46°06' W 122°56'0 0.0
2014-Dec-20 03:33N 46°06' W 122°56'0 0.0
2014-Dec-20 02:33N 46°06' W 122°56'0 0.0
2014-Dec-20 01:33N 46°06' W 122°56'0 0.0
2014-Dec-20 00:33N 46°06' W 122°56'1 0.6
2014-Dec-19 23:33N 46°06' W 122°57'1 0.5
2014-Dec-19 22:33N 46°07' W 122°58'0 0.0
2014-Dec-19 21:33N 46°07' W 122°58'0 0.0
2014-Dec-19 20:33N 46°07' W 122°58'0 0.0
2014-Dec-19 19:33N 46°07' W 122°58'0 0.0
2014-Dec-19 18:33N 46°07' W 122°58'1 1.3
2014-Dec-19 17:33N 46°07' W 122°59'6 5.5
2014-Dec-19 16:33N 46°10' W 123°06'4 3.6
2014-Dec-19 15:33N 46°11' W 123°11'5 5.2
2014-Dec-19 14:33N 46°09' W 123°04'6 6.1
2014-Dec-19 13:33N 46°06' W 122°57'0 0.0
2014-Dec-19 12:33N 46°06' W 122°57'0 0.0
2014-Dec-19 11:33N 46°06' W 122°57'0 0.0
2014-Dec-19 10:33N 46°06' W 122°57'0 0.0
2014-Dec-19 09:33N 46°06' W 122°57'3 2.8
2014-Dec-19 08:33N 46°04' W 122°53'1212.0
2014-Dec-19 07:33N 45°53' W 122°48'1211.7
2014-Dec-19 06:33N 45°41' W 122°47'4 3.7
2014-Dec-19 05:33N 45°38' W 122°44'1 0.8
2014-Dec-19 04:33N 45°39' W 122°45'0 0.0
2014-Dec-19 03:33N 45°39' W 122°45'2 2.3
2014-Dec-19 02:33N 45°38' W 122°42'2 2.3
2014-Dec-19 01:33N 45°39' W 122°45'0 0.1
2014-Dec-19 00:33N 45°39' W 122°45'2 1.8
2014-Dec-18 23:33N 45°38' W 122°42'1 0.9
2014-Dec-18 22:33N 45°38' W 122°44'4 4.4
2014-Dec-18 21:33N 45°34' W 122°44'0 0.0
2014-Dec-18 20:33N 45°34' W 122°44'1 0.7
2014-Dec-18 19:33N 45°34' W 122°43'0 0.0
2014-Dec-18 18:33N 45°34' W 122°43'0 0.0
2014-Dec-18 17:33N 45°34' W 122°43'0 0.0
2014-Dec-18 16:33N 45°34' W 122°43'0 0.0
2014-Dec-18 15:33N 45°34' W 122°43'0 0.5
2014-Dec-18 14:33N 45°34' W 122°44'0 0.0
2014-Dec-18 13:33N 45°34' W 122°44'5 4.6
2014-Dec-18 12:33N 45°38' W 122°42'0 0.2
2014-Dec-18 11:33N 45°38' W 122°42'1 1.0
2014-Dec-18 10:33N 45°38' W 122°44'0 0.0
2014-Dec-18 09:33N 45°38' W 122°44'0 0.0
2014-Dec-18 08:33N 45°38' W 122°44'1 1.0
2014-Dec-18 07:33N 45°39' W 122°45'3 2.9
2014-Dec-18 06:33N 45°36' W 122°46'1 1.3
2014-Dec-18 05:33N 45°37' W 122°47'2 1.8
2014-Dec-18 04:23N 45°39' W 122°45'0 0.0
2014-Dec-18 03:33N 45°39' W 122°45'0 0.2
2014-Dec-18 02:33N 45°39' W 122°45'1 0.9
2014-Dec-18 01:33N 45°40' W 122°46'1 1.3
2014-Dec-18 00:33N 45°39' W 122°45'0 0.0
2014-Dec-17 23:33N 45°39' W 122°45'0 0.0
2014-Dec-17 22:33N 45°39' W 122°45'0 0.0
2014-Dec-17 21:33N 45°39' W 122°45'0 0.0
2014-Dec-17 20:33N 45°39' W 122°45'2 2.0
2014-Dec-17 19:33N 45°38' W 122°47'5 4.9
2014-Dec-17 18:33N 45°34' W 122°44'0 0.0
2014-Dec-17 17:33N 45°34' W 122°44'0 0.0
2014-Dec-17 16:33N 45°34' W 122°44'0 0.0
2014-Dec-17 15:33N 45°34' W 122°44'0 0.0
2014-Dec-17 14:33N 45°34' W 122°44'0 0.0
2014-Dec-17 13:33N 45°34' W 122°44'1 1.4
2014-Dec-17 12:33N 45°33' W 122°42'3 2.9
2014-Dec-17 11:33N 45°35' W 122°45'1 1.4
2014-Dec-17 10:32N 45°36' W 122°47'1 1.1
2014-Dec-17 09:33N 45°37' W 122°47'0 0.0
2014-Dec-17 08:33N 45°37' W 122°47'4 3.9
2014-Dec-17 07:33N 45°38' W 122°42'1 1.4
2014-Dec-17 06:33N 45°39' W 122°44'0 0.4
2014-Dec-17 05:33N 45°39' W 122°45'0 0.0
2014-Dec-17 04:33N 45°39' W 122°45'2 2.2
2014-Dec-17 03:33N 45°37' W 122°47'2 1.9
2014-Dec-17 02:33N 45°36' W 122°47'4 3.7
2014-Dec-17 01:33N 45°39' W 122°46'1 1.2
2014-Dec-17 00:33N 45°39' W 122°44'1 0.6
2014-Dec-16 23:33N 45°39' W 122°45'0 0.2
2014-Dec-16 22:33N 45°39' W 122°45'0 0.2
2014-Dec-16 21:33N 45°39' W 122°45'0 0.0
2014-Dec-16 20:33N 45°39' W 122°45'0 0.0
2014-Dec-16 19:33N 45°39' W 122°45'0 0.0
2014-Dec-16 18:33N 45°39' W 122°45'0 0.0
2014-Dec-16 17:33N 45°39' W 122°45'0 0.0
2014-Dec-16 16:33N 45°39' W 122°45'0 0.0
2014-Dec-16 15:33N 45°39' W 122°45'0 0.3
2014-Dec-16 14:33N 45°39' W 122°45'0 0.0
2014-Dec-16 13:33N 45°39' W 122°45'0 0.0
2014-Dec-16 12:33N 45°39' W 122°45'4 3.7
2014-Dec-16 11:33N 45°35' W 122°45'3 3.5
2014-Dec-16 10:33N 45°38' W 122°47'3 2.5
2014-Dec-16 09:33N 45°38' W 122°43'1 1.3
2014-Dec-16 08:33N 45°39' W 122°45'0 0.0
2014-Dec-16 07:33N 45°39' W 122°45'0 0.0
2014-Dec-16 06:33N 45°39' W 122°45'0 0.0
2014-Dec-16 05:33N 45°39' W 122°45'0 0.0
2014-Dec-16 04:33N 45°39' W 122°45'0 0.0
2014-Dec-16 03:32N 45°39' W 122°45'2 1.8
2014-Dec-16 02:33N 45°38' W 122°47'4 4.3
2014-Dec-16 01:33N 45°34' W 122°44'1 0.5
2014-Dec-16 00:31N 45°34' W 122°44'1 0.5
2014-Dec-15 23:33N 45°34' W 122°44'5 4.7
2014-Dec-15 22:33N 45°38' W 122°47'1 1.2
2014-Dec-15 21:33N 45°39' W 122°45'0 0.0
2014-Dec-15 20:33N 45°39' W 122°45'1 1.1
2014-Dec-15 19:33N 45°38' W 122°44'0 0.0
2014-Dec-15 18:33N 45°38' W 122°44'1 1.0
2014-Dec-15 17:33N 45°38' W 122°42'0 0.0
2014-Dec-15 16:33N 45°38' W 122°42'0 0.0
2014-Dec-15 15:33N 45°38' W 122°42'3 3.4
2014-Dec-15 14:33N 45°38' W 122°47'5 5.0
2014-Dec-15 13:33N 45°34' W 122°44'0 0.0
2014-Dec-15 12:33N 45°34' W 122°44'0 0.0
2014-Dec-15 11:33N 45°34' W 122°44'3 2.6
2014-Dec-15 10:33N 45°32' W 122°41'1 1.3
2014-Dec-15 09:33N 45°33' W 122°42'0 0.0
2014-Dec-15 08:33N 45°33' W 122°42'0 0.0
2014-Dec-15 07:33N 45°33' W 122°42'1 1.2
2014-Dec-15 06:33N 45°34' W 122°44'5 5.5
2014-Dec-15 05:33N 45°39' W 122°46'2 2.3
2014-Dec-15 04:33N 45°38' W 122°43'1 0.8
2014-Dec-15 03:33N 45°39' W 122°44'0 0.5
2014-Dec-15 02:33N 45°39' W 122°45'0 0.0
2014-Dec-15 01:33N 45°39' W 122°45'0 0.4
2014-Dec-15 00:33N 45°38' W 122°44'0 0.2
2014-Dec-14 23:33N 45°38' W 122°44'1 1.5
2014-Dec-14 22:33N 45°38' W 122°42'5 4.5
2014-Dec-14 21:33N 45°42' W 122°46'1010.5
2014-Dec-14 20:33N 45°52' W 122°47'10 9.8
2014-Dec-14 19:33N 46°01' W 122°52'2 1.8
2014-Dec-14 18:33N 46°03' W 122°53'3 3.3
2014-Dec-14 17:33N 46°05' W 122°56'0 0.2
2014-Dec-14 16:33N 46°06' W 122°56'7 7.1
2014-Dec-14 15:33N 46°10' W 123°05'7 6.5
2014-Dec-14 14:33N 46°10' W 123°14'7 6.7
2014-Dec-14 13:33N 46°09' W 123°24'7 6.9
2014-Dec-14 12:33N 46°16' W 123°27'7 7.3
2014-Dec-14 11:34N 46°15' W 123°38'8 7.6
2014-Dec-14 10:33N 46°12' W 123°48'3 2.8
2014-Dec-14 09:33N 46°11' W 123°52'0 0.0
2014-Dec-14 08:33N 46°11' W 123°52'0 0.0
2014-Dec-14 07:33N 46°11' W 123°52'2 1.6
2014-Dec-14 06:34N 46°12' W 123°50'1414.1
2014-Dec-14 05:33N 46°16' W 123°30'1211.6
2014-Dec-14 04:34N 46°09' W 123°18'1212.2
2014-Dec-14 03:33N 46°08' W 123°00'2 1.9
2014-Dec-14 02:33N 46°06' W 122°58'0 0.4
2014-Dec-14 01:33N 46°07' W 122°58'2 2.2
2014-Dec-14 00:33N 46°05' W 122°56'0 0.0
2014-Dec-13 23:33N 46°05' W 122°56'1 1.1
2014-Dec-13 22:33N 46°06' W 122°57'1 1.1
2014-Dec-13 21:33N 46°05' W 122°56'0 0.0
2014-Dec-13 20:33N 46°05' W 122°56'0 0.0
2014-Dec-13 19:33N 46°05' W 122°56'0 0.1
2014-Dec-13 18:34N 46°05' W 122°56'0 0.2
2014-Dec-13 17:34N 46°06' W 122°56'0 0.4
2014-Dec-13 16:34N 46°06' W 122°56'0 0.0
2014-Dec-13 15:33N 46°06' W 122°56'1 0.5
2014-Dec-13 14:34N 46°05' W 122°56'0 0.0
2014-Dec-13 13:33N 46°05' W 122°56'0 0.0
2014-Dec-13 12:33N 46°05' W 122°56'0 0.0
2014-Dec-13 11:34N 46°05' W 122°56'0 0.0
2014-Dec-13 10:33N 46°05' W 122°56'0 0.0
2014-Dec-13 09:34N 46°05' W 122°56'0 0.0
2014-Dec-13 08:34N 46°05' W 122°56'0 0.0
2014-Dec-13 07:33N 46°05' W 122°56'0 0.0
2014-Dec-13 06:33N 46°05' W 122°56'5 5.2
2014-Dec-13 05:34N 46°09' W 123°02'7 6.8
2014-Dec-13 04:34N 46°11' W 123°11'1 0.8
2014-Dec-13 03:34N 46°11' W 123°10'10 9.9
2014-Dec-13 02:33N 46°06' W 122°58'2 1.5
2014-Dec-13 01:33N 46°05' W 122°56'0 0.0
2014-Dec-13 00:33N 46°05' W 122°56'0 0.0
2014-Dec-12 23:33N 46°05' W 122°56'0 0.0
2014-Dec-12 22:33N 46°05' W 122°56'2 1.6
2014-Dec-12 21:34N 46°06' W 122°58'2 1.6
2014-Dec-12 20:34N 46°05' W 122°56'0 0.0
2014-Dec-12 19:34N 46°05' W 122°56'0 0.0
2014-Dec-12 18:33N 46°05' W 122°56'0 0.0
2014-Dec-12 17:34N 46°05' W 122°56'0 0.0
2014-Dec-12 16:33N 46°05' W 122°56'0 0.0
2014-Dec-12 15:33N 46°05' W 122°56'0 0.0
2014-Dec-12 14:33N 46°05' W 122°56'0 0.0
2014-Dec-12 13:34N 46°05' W 122°56'1 1.0
2014-Dec-12 12:33N 46°06' W 122°57'1 1.0
2014-Dec-12 11:33N 46°05' W 122°56'0 0.0
2014-Dec-12 10:33N 46°05' W 122°56'0 0.0
2014-Dec-12 09:33N 46°05' W 122°56'1 0.8
2014-Dec-12 08:33N 46°06' W 122°57'1 0.6
2014-Dec-12 07:34N 46°06' W 122°57'5 5.4
2014-Dec-12 06:34N 46°02' W 122°53'0 0.4
2014-Dec-12 05:34N 46°02' W 122°53'  
Track history (hours):
 
Tides and Currents Weather Stations Pressure Air Temp Water Temp Dewpoint Dewpoint Depression Visibility Wind Speed Wind Dir Waves Ship Positions

Sommer S

Owner: Shaver Transportation Company, Portland, OR. More information available from US FCC via Universal Licensing System and Coast Guard Vessel Documentation Center.

Last reported at 2014-Dec-22 05:33 UTC. Time now 2014-Dec-22 05:36 UTC.
Position N 46°05' W 122°56'.

Length 25 m.

Type: Tug. MMSI: 367530080.

Date/timePositionNaut miles runAvg speedWind from/ knotsBaromVisibWave heightAir tempDewpointWater temp
2014-Dec-22 05:33N 46°05' W 122°56'1 1.0
2014-Dec-22 04:33N 46°06' W 122°57'2 1.9
2014-Dec-22 03:33N 46°05' W 122°55'4 4.3
2014-Dec-22 02:33N 46°08' W 122°60'7 6.6
2014-Dec-22 01:32N 46°11' W 123°08'6 6.3
2014-Dec-22 00:33N 46°09' W 123°16'6 6.5
2014-Dec-21 23:33N 46°10' W 123°25'7 6.5
2014-Dec-21 22:33N 46°16' W 123°29'8 7.7
2014-Dec-21 21:33N 46°15' W 123°40'9 8.7
2014-Dec-21 20:33N 46°11' W 123°52'0 0.1
2014-Dec-21 19:33N 46°11' W 123°52'0 0.1
2014-Dec-21 18:34N 46°11' W 123°52'2 2.0
2014-Dec-21 17:33N 46°12' W 123°49'9 8.6
2014-Dec-21 16:33N 46°16' W 123°38'9 8.8
2014-Dec-21 15:33N 46°12' W 123°26'9 9.1
2014-Dec-21 14:33N 46°10' W 123°13'1010.3
2014-Dec-21 13:33N 46°07' W 122°59'2 1.7
2014-Dec-21 12:33N 46°06' W 122°57'0 0.5
2014-Dec-21 11:33N 46°06' W 122°57'1 0.7
2014-Dec-21 10:33N 46°06' W 122°56'0 0.0
2014-Dec-21 09:33N 46°06' W 122°56'0 0.0
2014-Dec-21 08:33N 46°06' W 122°56'0 0.0
2014-Dec-21 07:33N 46°06' W 122°56'0 0.0
2014-Dec-21 06:33N 46°06' W 122°56'0 0.0
2014-Dec-21 05:33N 46°06' W 122°56'0 0.0
2014-Dec-21 04:33N 46°06' W 122°56'0 0.0
2014-Dec-21 03:33N 46°06' W 122°56'0 0.0
2014-Dec-21 02:33N 46°06' W 122°56'0 0.0
2014-Dec-21 01:33N 46°06' W 122°56'0 0.0
2014-Dec-21 00:33N 46°06' W 122°56'0 0.0
2014-Dec-20 23:33N 46°06' W 122°56'0 0.0
2014-Dec-20 22:33N 46°06' W 122°56'0 0.0
2014-Dec-20 21:33N 46°06' W 122°56'0 0.0
2014-Dec-20 20:33N 46°06' W 122°56'0 0.0
2014-Dec-20 19:33N 46°06' W 122°56'0 0.0
2014-Dec-20 18:33N 46°06' W 122°56'0 0.0
2014-Dec-20 17:33N 46°06' W 122°56'0 0.0
2014-Dec-20 16:33N 46°06' W 122°56'0 0.0
2014-Dec-20 15:33N 46°06' W 122°56'0 0.0
2014-Dec-20 14:33N 46°06' W 122°56'0 0.0
2014-Dec-20 13:33N 46°06' W 122°56'0 0.0
2014-Dec-20 12:33N 46°06' W 122°56'0 0.2
2014-Dec-20 11:33N 46°06' W 122°57'1 1.0
2014-Dec-20 10:33N 46°06' W 122°56'1 0.8
2014-Dec-20 09:33N 46°06' W 122°56'0 0.0
2014-Dec-20 08:33N 46°06' W 122°56'0 0.0
2014-Dec-20 07:33N 46°06' W 122°56'0 0.0
2014-Dec-20 06:33N 46°06' W 122°56'0 0.0
2014-Dec-20 05:33N 46°06' W 122°56'0 0.0
2014-Dec-20 04:33N 46°06' W 122°56'0 0.0
2014-Dec-20 03:33N 46°06' W 122°56'0 0.0
2014-Dec-20 02:33N 46°06' W 122°56'0 0.0
2014-Dec-20 01:33N 46°06' W 122°56'0 0.0
2014-Dec-20 00:33N 46°06' W 122°56'1 0.6
2014-Dec-19 23:33N 46°06' W 122°57'1 0.5
2014-Dec-19 22:33N 46°07' W 122°58'0 0.0
2014-Dec-19 21:33N 46°07' W 122°58'0 0.0
2014-Dec-19 20:33N 46°07' W 122°58'0 0.0
2014-Dec-19 19:33N 46°07' W 122°58'0 0.0
2014-Dec-19 18:33N 46°07' W 122°58'1 1.3
2014-Dec-19 17:33N 46°07' W 122°59'6 5.5
2014-Dec-19 16:33N 46°10' W 123°06'4 3.6
2014-Dec-19 15:33N 46°11' W 123°11'5 5.2
2014-Dec-19 14:33N 46°09' W 123°04'6 6.1
2014-Dec-19 13:33N 46°06' W 122°57'0 0.0
2014-Dec-19 12:33N 46°06' W 122°57'0 0.0
2014-Dec-19 11:33N 46°06' W 122°57'0 0.0
2014-Dec-19 10:33N 46°06' W 122°57'0 0.0
2014-Dec-19 09:33N 46°06' W 122°57'3 2.8
2014-Dec-19 08:33N 46°04' W 122°53'1212.0
2014-Dec-19 07:33N 45°53' W 122°48'1211.7
2014-Dec-19 06:33N 45°41' W 122°47'4 3.7
2014-Dec-19 05:33N 45°38' W 122°44'1 0.8
2014-Dec-19 04:33N 45°39' W 122°45'0 0.0
2014-Dec-19 03:33N 45°39' W 122°45'2 2.3
2014-Dec-19 02:33N 45°38' W 122°42'2 2.3
2014-Dec-19 01:33N 45°39' W 122°45'0 0.1
2014-Dec-19 00:33N 45°39' W 122°45'2 1.8
2014-Dec-18 23:33N 45°38' W 122°42'1 0.9
2014-Dec-18 22:33N 45°38' W 122°44'4 4.4
2014-Dec-18 21:33N 45°34' W 122°44'0 0.0
2014-Dec-18 20:33N 45°34' W 122°44'1 0.7
2014-Dec-18 19:33N 45°34' W 122°43'0 0.0
2014-Dec-18 18:33N 45°34' W 122°43'0 0.0
2014-Dec-18 17:33N 45°34' W 122°43'0 0.0
2014-Dec-18 16:33N 45°34' W 122°43'0 0.0
2014-Dec-18 15:33N 45°34' W 122°43'0 0.5
2014-Dec-18 14:33N 45°34' W 122°44'0 0.0
2014-Dec-18 13:33N 45°34' W 122°44'5 4.6
2014-Dec-18 12:33N 45°38' W 122°42'0 0.2
2014-Dec-18 11:33N 45°38' W 122°42'1 1.0
2014-Dec-18 10:33N 45°38' W 122°44'0 0.0
2014-Dec-18 09:33N 45°38' W 122°44'0 0.0
2014-Dec-18 08:33N 45°38' W 122°44'1 1.0
2014-Dec-18 07:33N 45°39' W 122°45'3 2.9
2014-Dec-18 06:33N 45°36' W 122°46'1 1.3
2014-Dec-18 05:33N 45°37' W 122°47'2 1.8
2014-Dec-18 04:23N 45°39' W 122°45'0 0.0
2014-Dec-18 03:33N 45°39' W 122°45'0 0.2
2014-Dec-18 02:33N 45°39' W 122°45'1 0.9
2014-Dec-18 01:33N 45°40' W 122°46'1 1.3
2014-Dec-18 00:33N 45°39' W 122°45'0 0.0
2014-Dec-17 23:33N 45°39' W 122°45'0 0.0
2014-Dec-17 22:33N 45°39' W 122°45'0 0.0
2014-Dec-17 21:33N 45°39' W 122°45'0 0.0
2014-Dec-17 20:33N 45°39' W 122°45'2 2.0
2014-Dec-17 19:33N 45°38' W 122°47'5 4.9
2014-Dec-17 18:33N 45°34' W 122°44'0 0.0
2014-Dec-17 17:33N 45°34' W 122°44'0 0.0
2014-Dec-17 16:33N 45°34' W 122°44'0 0.0
2014-Dec-17 15:33N 45°34' W 122°44'0 0.0
2014-Dec-17 14:33N 45°34' W 122°44'0 0.0
2014-Dec-17 13:33N 45°34' W 122°44'1 1.4
2014-Dec-17 12:33N 45°33' W 122°42'3 2.9
2014-Dec-17 11:33N 45°35' W 122°45'1 1.4
2014-Dec-17 10:32N 45°36' W 122°47'1 1.1
2014-Dec-17 09:33N 45°37' W 122°47'0 0.0
2014-Dec-17 08:33N 45°37' W 122°47'4 3.9
2014-Dec-17 07:33N 45°38' W 122°42'1 1.4
2014-Dec-17 06:33N 45°39' W 122°44'0 0.4
2014-Dec-17 05:33N 45°39' W 122°45'0 0.0
2014-Dec-17 04:33N 45°39' W 122°45'2 2.2
2014-Dec-17 03:33N 45°37' W 122°47'2 1.9
2014-Dec-17 02:33N 45°36' W 122°47'4 3.7
2014-Dec-17 01:33N 45°39' W 122°46'1 1.2
2014-Dec-17 00:33N 45°39' W 122°44'1 0.6
2014-Dec-16 23:33N 45°39' W 122°45'0 0.2
2014-Dec-16 22:33N 45°39' W 122°45'0 0.2
2014-Dec-16 21:33N 45°39' W 122°45'0 0.0
2014-Dec-16 20:33N 45°39' W 122°45'0 0.0
2014-Dec-16 19:33N 45°39' W 122°45'0 0.0
2014-Dec-16 18:33N 45°39' W 122°45'0 0.0
2014-Dec-16 17:33N 45°39' W 122°45'0 0.0
2014-Dec-16 16:33N 45°39' W 122°45'0 0.0
2014-Dec-16 15:33N 45°39' W 122°45'0 0.3
2014-Dec-16 14:33N 45°39' W 122°45'0 0.0
2014-Dec-16 13:33N 45°39' W 122°45'0 0.0
2014-Dec-16 12:33N 45°39' W 122°45'4 3.7
2014-Dec-16 11:33N 45°35' W 122°45'3 3.5
2014-Dec-16 10:33N 45°38' W 122°47'3 2.5
2014-Dec-16 09:33N 45°38' W 122°43'1 1.3
2014-Dec-16 08:33N 45°39' W 122°45'0 0.0
2014-Dec-16 07:33N 45°39' W 122°45'0 0.0
2014-Dec-16 06:33N 45°39' W 122°45'0 0.0
2014-Dec-16 05:33N 45°39' W 122°45'0 0.0
2014-Dec-16 04:33N 45°39' W 122°45'0 0.0
2014-Dec-16 03:32N 45°39' W 122°45'2 1.8
2014-Dec-16 02:33N 45°38' W 122°47'4 4.3
2014-Dec-16 01:33N 45°34' W 122°44'1 0.5
2014-Dec-16 00:31N 45°34' W 122°44'1 0.5
2014-Dec-15 23:33N 45°34' W 122°44'5 4.7
2014-Dec-15 22:33N 45°38' W 122°47'1 1.2
2014-Dec-15 21:33N 45°39' W 122°45'0 0.0
2014-Dec-15 20:33N 45°39' W 122°45'1 1.1
2014-Dec-15 19:33N 45°38' W 122°44'0 0.0
2014-Dec-15 18:33N 45°38' W 122°44'1 1.0
2014-Dec-15 17:33N 45°38' W 122°42'0 0.0
2014-Dec-15 16:33N 45°38' W 122°42'0 0.0
2014-Dec-15 15:33N 45°38' W 122°42'3 3.4
2014-Dec-15 14:33N 45°38' W 122°47'5 5.0
2014-Dec-15 13:33N 45°34' W 122°44'0 0.0
2014-Dec-15 12:33N 45°34' W 122°44'0 0.0
2014-Dec-15 11:33N 45°34' W 122°44'3 2.6
2014-Dec-15 10:33N 45°32' W 122°41'1 1.3
2014-Dec-15 09:33N 45°33' W 122°42'0 0.0
2014-Dec-15 08:33N 45°33' W 122°42'0 0.0
2014-Dec-15 07:33N 45°33' W 122°42'1 1.2
2014-Dec-15 06:33N 45°34' W 122°44'5 5.5
2014-Dec-15 05:33N 45°39' W 122°46'2 2.3
2014-Dec-15 04:33N 45°38' W 122°43'1 0.8
2014-Dec-15 03:33N 45°39' W 122°44'0 0.5
2014-Dec-15 02:33N 45°39' W 122°45'0 0.0
2014-Dec-15 01:33N 45°39' W 122°45'0 0.4
2014-Dec-15 00:33N 45°38' W 122°44'0 0.2
2014-Dec-14 23:33N 45°38' W 122°44'1 1.5
2014-Dec-14 22:33N 45°38' W 122°42'5 4.5
2014-Dec-14 21:33N 45°42' W 122°46'1010.5
2014-Dec-14 20:33N 45°52' W 122°47'10 9.8
2014-Dec-14 19:33N 46°01' W 122°52'2 1.8
2014-Dec-14 18:33N 46°03' W 122°53'3 3.3
2014-Dec-14 17:33N 46°05' W 122°56'0 0.2
2014-Dec-14 16:33N 46°06' W 122°56'7 7.1
2014-Dec-14 15:33N 46°10' W 123°05'7 6.5
2014-Dec-14 14:33N 46°10' W 123°14'7 6.7
2014-Dec-14 13:33N 46°09' W 123°24'7 6.9
2014-Dec-14 12:33N 46°16' W 123°27'7 7.3
2014-Dec-14 11:34N 46°15' W 123°38'8 7.6
2014-Dec-14 10:33N 46°12' W 123°48'3 2.8
2014-Dec-14 09:33N 46°11' W 123°52'0 0.0
2014-Dec-14 08:33N 46°11' W 123°52'0 0.0
2014-Dec-14 07:33N 46°11' W 123°52'2 1.6
2014-Dec-14 06:34N 46°12' W 123°50'1414.1
2014-Dec-14 05:33N 46°16' W 123°30'1211.6
2014-Dec-14 04:34N 46°09' W 123°18'1212.2
2014-Dec-14 03:33N 46°08' W 123°00'2 1.9
2014-Dec-14 02:33N 46°06' W 122°58'0 0.4
2014-Dec-14 01:33N 46°07' W 122°58'2 2.2
2014-Dec-14 00:33N 46°05' W 122°56'0 0.0
2014-Dec-13 23:33N 46°05' W 122°56'1 1.1
2014-Dec-13 22:33N 46°06' W 122°57'1 1.1
2014-Dec-13 21:33N 46°05' W 122°56'0 0.0
2014-Dec-13 20:33N 46°05' W 122°56'0 0.0
2014-Dec-13 19:33N 46°05' W 122°56'0 0.1
2014-Dec-13 18:34N 46°05' W 122°56'0 0.2
2014-Dec-13 17:34N 46°06' W 122°56'0 0.4
2014-Dec-13 16:34N 46°06' W 122°56'0 0.0
2014-Dec-13 15:33N 46°06' W 122°56'1 0.5
2014-Dec-13 14:34N 46°05' W 122°56'0 0.0
2014-Dec-13 13:33N 46°05' W 122°56'0 0.0
2014-Dec-13 12:33N 46°05' W 122°56'0 0.0
2014-Dec-13 11:34N 46°05' W 122°56'0 0.0
2014-Dec-13 10:33N 46°05' W 122°56'0 0.0
2014-Dec-13 09:34N 46°05' W 122°56'0 0.0
2014-Dec-13 08:34N 46°05' W 122°56'0 0.0
2014-Dec-13 07:33N 46°05' W 122°56'0 0.0
2014-Dec-13 06:33N 46°05' W 122°56'5 5.2
2014-Dec-13 05:34N 46°09' W 123°02'7 6.8
2014-Dec-13 04:34N 46°11' W 123°11'1 0.8
2014-Dec-13 03:34N 46°11' W 123°10'10 9.9
2014-Dec-13 02:33N 46°06' W 122°58'2 1.5
2014-Dec-13 01:33N 46°05' W 122°56'0 0.0
2014-Dec-13 00:33N 46°05' W 122°56'0 0.0
2014-Dec-12 23:33N 46°05' W 122°56'0 0.0
2014-Dec-12 22:33N 46°05' W 122°56'2 1.6
2014-Dec-12 21:34N 46°06' W 122°58'2 1.6
2014-Dec-12 20:34N 46°05' W 122°56'0 0.0
2014-Dec-12 19:34N 46°05' W 122°56'0 0.0
2014-Dec-12 18:33N 46°05' W 122°56'0 0.0
2014-Dec-12 17:34N 46°05' W 122°56'0 0.0
2014-Dec-12 16:33N 46°05' W 122°56'0 0.0
2014-Dec-12 15:33N 46°05' W 122°56'0 0.0
2014-Dec-12 14:33N 46°05' W 122°56'0 0.0
2014-Dec-12 13:34N 46°05' W 122°56'1 1.0
2014-Dec-12 12:33N 46°06' W 122°57'1 1.0
2014-Dec-12 11:33N 46°05' W 122°56'0 0.0
2014-Dec-12 10:33N 46°05' W 122°56'0 0.0
2014-Dec-12 09:33N 46°05' W 122°56'1 0.8
2014-Dec-12 08:33N 46°06' W 122°57'1 0.6
2014-Dec-12 07:34N 46°06' W 122°57'5 5.4
2014-Dec-12 06:34N 46°02' W 122°53'0 0.4
2014-Dec-12 05:34N 46°02' W 122°53'  

Dump ship's entire track history